sensor_id;sensor_type;location;lat;lon;timestamp;P1;durP1;ratioP1;P2;durP2;ratioP2
18574;SDS011;9417;16.484;102.872;2023-02-14T00:01:51;63.92;;;45.45;;
18574;SDS011;9417;16.484;102.872;2023-02-14T00:03:58;62.88;;;45.67;;
18574;SDS011;9417;16.484;102.872;2023-02-14T00:06:05;59.83;;;45.47;;
18574;SDS011;9417;16.484;102.872;2023-02-14T00:08:13;66.82;;;46.88;;
18574;SDS011;9417;16.484;102.872;2023-02-14T00:10:20;58.42;;;43.25;;
18574;SDS011;9417;16.484;102.872;2023-02-14T00:12:27;63.70;;;45.20;;
18574;SDS011;9417;16.484;102.872;2023-02-14T00:14:34;71.70;;;52.83;;
18574;SDS011;9417;16.484;102.872;2023-02-14T00:16:59;83.05;;;54.95;;
18574;SDS011;9417;16.484;102.872;2023-02-14T00:19:07;71.95;;;50.45;;
18574;SDS011;9417;16.484;102.872;2023-02-14T00:21:16;66.72;;;48.08;;
18574;SDS011;9417;16.484;102.872;2023-02-14T00:23:23;65.78;;;47.75;;
18574;SDS011;9417;16.484;102.872;2023-02-14T00:25:31;63.40;;;48.17;;
18574;SDS011;9417;16.484;102.872;2023-02-14T00:27:38;73.50;;;49.45;;
18574;SDS011;9417;16.484;102.872;2023-02-14T00:29:46;82.40;;;52.25;;
18574;SDS011;9417;16.484;102.872;2023-02-14T00:31:53;84.25;;;54.08;;
18574;SDS011;9417;16.484;102.872;2023-02-14T00:34:02;83.53;;;54.92;;
18574;SDS011;9417;16.484;102.872;2023-02-14T00:36:09;81.28;;;55.03;;
18574;SDS011;9417;16.484;102.872;2023-02-14T00:38:17;88.80;;;54.50;;
18574;SDS011;9417;16.484;102.872;2023-02-14T00:40:24;76.53;;;51.17;;
18574;SDS011;9417;16.484;102.872;2023-02-14T00:42:31;79.72;;;51.97;;
18574;SDS011;9417;16.484;102.872;2023-02-14T00:44:38;78.07;;;52.28;;
18574;SDS011;9417;16.484;102.872;2023-02-14T00:46:45;69.75;;;49.05;;
18574;SDS011;9417;16.484;102.872;2023-02-14T00:48:52;70.55;;;49.33;;
18574;SDS011;9417;16.484;102.872;2023-02-14T00:51:01;67.85;;;49.63;;
18574;SDS011;9417;16.484;102.872;2023-02-14T00:53:08;74.35;;;49.38;;
18574;SDS011;9417;16.484;102.872;2023-02-14T00:55:15;68.60;;;49.30;;
18574;SDS011;9417;16.484;102.872;2023-02-14T00:57:22;70.10;;;48.65;;
18574;SDS011;9417;16.484;102.872;2023-02-14T00:59:29;68.97;;;46.47;;
18574;SDS011;9417;16.484;102.872;2023-02-14T01:01:38;66.85;;;47.88;;
18574;SDS011;9417;16.484;102.872;2023-02-14T01:03:45;71.22;;;50.42;;
18574;SDS011;9417;16.484;102.872;2023-02-14T01:05:52;71.28;;;50.08;;
18574;SDS011;9417;16.484;102.872;2023-02-14T01:08:01;68.50;;;47.85;;
18574;SDS011;9417;16.484;102.872;2023-02-14T01:10:08;67.78;;;48.75;;
18574;SDS011;9417;16.484;102.872;2023-02-14T01:12:16;66.32;;;49.35;;
18574;SDS011;9417;16.484;102.872;2023-02-14T01:14:23;71.40;;;49.28;;
18574;SDS011;9417;16.484;102.872;2023-02-14T01:16:30;66.53;;;48.00;;
18574;SDS011;9417;16.484;102.872;2023-02-14T01:18:37;72.55;;;46.80;;
18574;SDS011;9417;16.484;102.872;2023-02-14T01:20:45;71.32;;;49.10;;
18574;SDS011;9417;16.484;102.872;2023-02-14T01:22:54;74.47;;;51.88;;
18574;SDS011;9417;16.484;102.872;2023-02-14T01:25:02;79.63;;;52.40;;
18574;SDS011;9417;16.484;102.872;2023-02-14T01:27:09;76.05;;;52.55;;
18574;SDS011;9417;16.484;102.872;2023-02-14T01:29:16;77.55;;;53.38;;
18574;SDS011;9417;16.484;102.872;2023-02-14T01:31:27;79.90;;;53.38;;
18574;SDS011;9417;16.484;102.872;2023-02-14T01:33:35;80.43;;;53.63;;
18574;SDS011;9417;16.484;102.872;2023-02-14T01:35:43;81.47;;;54.63;;
18574;SDS011;9417;16.484;102.872;2023-02-14T01:37:50;84.72;;;56.97;;
18574;SDS011;9417;16.484;102.872;2023-02-14T01:39:57;79.22;;;55.47;;
18574;SDS011;9417;16.484;102.872;2023-02-14T01:42:06;83.45;;;53.78;;
18574;SDS011;9417;16.484;102.872;2023-02-14T01:47:00;82.72;;;52.33;;
18574;SDS011;9417;16.484;102.872;2023-02-14T01:49:10;85.22;;;54.90;;
18574;SDS011;9417;16.484;102.872;2023-02-14T01:51:20;82.07;;;52.13;;
18574;SDS011;9417;16.484;102.872;2023-02-14T01:53:28;79.95;;;52.97;;
18574;SDS011;9417;16.484;102.872;2023-02-14T01:55:36;71.65;;;50.08;;
18574;SDS011;9417;16.484;102.872;2023-02-14T01:57:50;72.43;;;48.47;;
18574;SDS011;9417;16.484;102.872;2023-02-14T02:00:01;72.78;;;48.05;;
18574;SDS011;9417;16.484;102.872;2023-02-14T02:02:22;69.35;;;46.55;;
18574;SDS011;9417;16.484;102.872;2023-02-14T02:04:31;62.60;;;42.22;;
18574;SDS011;9417;16.484;102.872;2023-02-14T02:06:40;64.32;;;43.60;;
18574;SDS011;9417;16.484;102.872;2023-02-14T02:08:52;63.38;;;41.13;;
18574;SDS011;9417;16.484;102.872;2023-02-14T02:11:07;59.58;;;41.05;;
18574;SDS011;9417;16.484;102.872;2023-02-14T02:13:16;56.92;;;37.70;;
18574;SDS011;9417;16.484;102.872;2023-02-14T02:15:25;55.38;;;36.50;;
18574;SDS011;9417;16.484;102.872;2023-02-14T02:17:38;55.72;;;35.50;;
18574;SDS011;9417;16.484;102.872;2023-02-14T02:22:40;46.78;;;32.75;;
18574;SDS011;9417;16.484;102.872;2023-02-14T02:25:04;46.63;;;32.87;;
18574;SDS011;9417;16.484;102.872;2023-02-14T02:27:37;47.15;;;32.78;;
18574;SDS011;9417;16.484;102.872;2023-02-14T02:30:14;49.20;;;33.63;;
18574;SDS011;9417;16.484;102.872;2023-02-14T02:32:53;50.13;;;33.42;;
18574;SDS011;9417;16.484;102.872;2023-02-14T02:35:28;47.72;;;32.45;;
18574;SDS011;9417;16.484;102.872;2023-02-14T02:37:48;50.38;;;33.13;;
18574;SDS011;9417;16.484;102.872;2023-02-14T02:40:08;52.63;;;33.35;;
18574;SDS011;9417;16.484;102.872;2023-02-14T02:42:29;54.85;;;33.92;;
18574;SDS011;9417;16.484;102.872;2023-02-14T02:44:49;52.67;;;33.67;;
18574;SDS011;9417;16.484;102.872;2023-02-14T02:47:01;52.45;;;35.03;;
18574;SDS011;9417;16.484;102.872;2023-02-14T02:49:15;47.95;;;35.33;;
18574;SDS011;9417;16.484;102.872;2023-02-14T02:51:45;51.95;;;34.10;;
18574;SDS011;9417;16.484;102.872;2023-02-14T02:54:16;51.05;;;33.65;;
18574;SDS011;9417;16.484;102.872;2023-02-14T02:56:31;47.60;;;32.88;;
18574;SDS011;9417;16.484;102.872;2023-02-14T02:58:52;51.45;;;31.50;;
18574;SDS011;9417;16.484;102.872;2023-02-14T03:01:07;40.30;;;30.83;;
18574;SDS011;9417;16.484;102.872;2023-02-14T03:03:16;39.63;;;30.20;;
18574;SDS011;9417;16.484;102.872;2023-02-14T03:05:40;42.80;;;31.05;;
18574;SDS011;9417;16.484;102.872;2023-02-14T03:07:52;40.70;;;29.55;;
18574;SDS011;9417;16.484;102.872;2023-02-14T03:10:00;46.25;;;30.75;;
18574;SDS011;9417;16.484;102.872;2023-02-14T03:12:11;47.23;;;33.60;;
18574;SDS011;9417;16.484;102.872;2023-02-14T03:14:29;44.03;;;33.28;;
18574;SDS011;9417;16.484;102.872;2023-02-14T03:16:45;47.17;;;35.42;;
18574;SDS011;9417;16.484;102.872;2023-02-14T03:21:36;53.85;;;36.75;;
18574;SDS011;9417;16.484;102.872;2023-02-14T03:23:52;54.22;;;37.42;;
18574;SDS011;9417;16.484;102.872;2023-02-14T03:26:05;48.08;;;36.17;;
18574;SDS011;9417;16.484;102.872;2023-02-14T03:28:23;51.40;;;35.78;;
18574;SDS011;9417;16.484;102.872;2023-02-14T03:30:35;53.08;;;36.50;;
18574;SDS011;9417;16.484;102.872;2023-02-14T03:32:51;49.60;;;38.03;;
18574;SDS011;9417;16.484;102.872;2023-02-14T03:35:08;48.03;;;37.05;;
18574;SDS011;9417;16.484;102.872;2023-02-14T03:37:21;56.72;;;40.28;;
18574;SDS011;9417;16.484;102.872;2023-02-14T03:39:36;51.30;;;37.63;;
18574;SDS011;9417;16.484;102.872;2023-02-14T03:41:48;42.85;;;32.33;;
18574;SDS011;9417;16.484;102.872;2023-02-14T03:43:58;48.15;;;32.17;;
18574;SDS011;9417;16.484;102.872;2023-02-14T03:46:09;46.70;;;34.47;;
18574;SDS011;9417;16.484;102.872;2023-02-14T03:48:20;48.65;;;34.20;;
18574;SDS011;9417;16.484;102.872;2023-02-14T03:50:30;46.72;;;35.28;;
18574;SDS011;9417;16.484;102.872;2023-02-14T03:52:39;50.88;;;35.92;;
18574;SDS011;9417;16.484;102.872;2023-02-14T03:54:49;43.25;;;33.38;;
18574;SDS011;9417;16.484;102.872;2023-02-14T03:57:03;50.30;;;35.53;;
18574;SDS011;9417;16.484;102.872;2023-02-14T03:59:25;46.03;;;34.00;;
18574;SDS011;9417;16.484;102.872;2023-02-14T04:01:34;44.65;;;33.40;;
18574;SDS011;9417;16.484;102.872;2023-02-14T04:05:51;41.83;;;32.78;;
18574;SDS011;9417;16.484;102.872;2023-02-14T04:07:59;43.80;;;33.55;;
18574;SDS011;9417;16.484;102.872;2023-02-14T04:10:08;42.53;;;32.85;;
18574;SDS011;9417;16.484;102.872;2023-02-14T04:12:16;40.88;;;31.27;;
18574;SDS011;9417;16.484;102.872;2023-02-14T04:14:39;41.03;;;30.35;;
18574;SDS011;9417;16.484;102.872;2023-02-14T04:16:45;39.97;;;30.30;;
18574;SDS011;9417;16.484;102.872;2023-02-14T04:19:09;35.17;;;27.67;;
18574;SDS011;9417;16.484;102.872;2023-02-14T04:21:28;38.28;;;27.90;;
18574;SDS011;9417;16.484;102.872;2023-02-14T04:23:35;33.22;;;26.77;;
18574;SDS011;9417;16.484;102.872;2023-02-14T04:25:44;40.95;;;28.67;;
18574;SDS011;9417;16.484;102.872;2023-02-14T04:27:51;38.35;;;27.08;;
18574;SDS011;9417;16.484;102.872;2023-02-14T04:29:58;32.88;;;27.25;;
18574;SDS011;9417;16.484;102.872;2023-02-14T04:32:06;29.98;;;24.65;;
18574;SDS011;9417;16.484;102.872;2023-02-14T04:34:14;31.33;;;25.00;;
18574;SDS011;9417;16.484;102.872;2023-02-14T04:36:21;28.65;;;23.02;;
18574;SDS011;9417;16.484;102.872;2023-02-14T04:38:28;29.05;;;22.98;;
18574;SDS011;9417;16.484;102.872;2023-02-14T04:40:37;28.40;;;21.63;;
18574;SDS011;9417;16.484;102.872;2023-02-14T04:42:46;24.83;;;20.10;;
18574;SDS011;9417;16.484;102.872;2023-02-14T04:44:53;23.60;;;19.15;;
18574;SDS011;9417;16.484;102.872;2023-02-14T04:47:00;25.05;;;19.67;;
18574;SDS011;9417;16.484;102.872;2023-02-14T04:49:07;24.25;;;20.83;;
18574;SDS011;9417;16.484;102.872;2023-02-14T04:51:14;27.38;;;21.98;;
18574;SDS011;9417;16.484;102.872;2023-02-14T04:53:21;28.92;;;22.58;;
18574;SDS011;9417;16.484;102.872;2023-02-14T04:55:28;28.00;;;22.58;;
18574;SDS011;9417;16.484;102.872;2023-02-14T04:57:35;26.58;;;21.70;;
18574;SDS011;9417;16.484;102.872;2023-02-14T04:59:44;28.33;;;22.67;;
18574;SDS011;9417;16.484;102.872;2023-02-14T05:01:51;32.53;;;24.25;;
18574;SDS011;9417;16.484;102.872;2023-02-14T05:03:58;31.60;;;24.42;;
18574;SDS011;9417;16.484;102.872;2023-02-14T05:06:05;28.95;;;21.98;;
18574;SDS011;9417;16.484;102.872;2023-02-14T05:08:13;26.90;;;22.15;;
18574;SDS011;9417;16.484;102.872;2023-02-14T05:10:20;29.52;;;21.83;;
18574;SDS011;9417;16.484;102.872;2023-02-14T05:12:27;29.38;;;21.42;;
18574;SDS011;9417;16.484;102.872;2023-02-14T05:14:35;26.30;;;20.75;;
18574;SDS011;9417;16.484;102.872;2023-02-14T05:16:43;26.80;;;20.85;;
18574;SDS011;9417;16.484;102.872;2023-02-14T05:18:51;23.40;;;19.48;;
18574;SDS011;9417;16.484;102.872;2023-02-14T05:20:58;31.73;;;20.10;;
18574;SDS011;9417;16.484;102.872;2023-02-14T05:23:05;25.40;;;20.23;;
18574;SDS011;9417;16.484;102.872;2023-02-14T05:25:16;24.52;;;19.20;;
18574;SDS011;9417;16.484;102.872;2023-02-14T05:27:23;24.63;;;19.40;;
18574;SDS011;9417;16.484;102.872;2023-02-14T05:29:31;26.25;;;20.50;;
18574;SDS011;9417;16.484;102.872;2023-02-14T05:31:38;23.23;;;20.25;;
18574;SDS011;9417;16.484;102.872;2023-02-14T05:33:47;27.17;;;21.20;;
18574;SDS011;9417;16.484;102.872;2023-02-14T05:35:54;25.83;;;20.75;;
18574;SDS011;9417;16.484;102.872;2023-02-14T05:38:05;21.27;;;18.98;;
18574;SDS011;9417;16.484;102.872;2023-02-14T05:40:13;24.80;;;19.40;;
18574;SDS011;9417;16.484;102.872;2023-02-14T05:42:20;25.77;;;20.85;;
18574;SDS011;9417;16.484;102.872;2023-02-14T05:44:27;22.48;;;19.05;;
18574;SDS011;9417;16.484;102.872;2023-02-14T05:46:35;21.83;;;18.30;;
18574;SDS011;9417;16.484;102.872;2023-02-14T05:48:42;23.50;;;18.98;;
18574;SDS011;9417;16.484;102.872;2023-02-14T05:50:51;24.25;;;18.35;;
18574;SDS011;9417;16.484;102.872;2023-02-14T05:53:00;25.38;;;19.33;;
18574;SDS011;9417;16.484;102.872;2023-02-14T05:55:07;21.92;;;18.17;;
18574;SDS011;9417;16.484;102.872;2023-02-14T05:57:15;26.85;;;20.08;;
18574;SDS011;9417;16.484;102.872;2023-02-14T05:59:22;22.75;;;18.45;;
18574;SDS011;9417;16.484;102.872;2023-02-14T06:01:30;25.75;;;19.75;;
18574;SDS011;9417;16.484;102.872;2023-02-14T06:03:37;24.80;;;19.20;;
18574;SDS011;9417;16.484;102.872;2023-02-14T06:05:44;20.73;;;17.23;;
18574;SDS011;9417;16.484;102.872;2023-02-14T06:07:53;25.00;;;19.98;;
18574;SDS011;9417;16.484;102.872;2023-02-14T06:10:01;21.50;;;18.60;;
18574;SDS011;9417;16.484;102.872;2023-02-14T06:12:08;21.60;;;18.25;;
18574;SDS011;9417;16.484;102.872;2023-02-14T06:14:15;21.63;;;17.98;;
18574;SDS011;9417;16.484;102.872;2023-02-14T06:16:22;23.02;;;18.70;;
18574;SDS011;9417;16.484;102.872;2023-02-14T06:18:30;21.80;;;16.83;;
18574;SDS011;9417;16.484;102.872;2023-02-14T06:20:37;21.90;;;18.23;;
18574;SDS011;9417;16.484;102.872;2023-02-14T06:22:44;22.77;;;18.23;;
18574;SDS011;9417;16.484;102.872;2023-02-14T06:24:53;21.05;;;16.92;;
18574;SDS011;9417;16.484;102.872;2023-02-14T06:27:01;21.00;;;16.70;;
18574;SDS011;9417;16.484;102.872;2023-02-14T06:29:08;19.10;;;16.05;;
18574;SDS011;9417;16.484;102.872;2023-02-14T06:31:15;19.77;;;15.70;;
18574;SDS011;9417;16.484;102.872;2023-02-14T06:33:23;22.48;;;16.75;;
18574;SDS011;9417;16.484;102.872;2023-02-14T06:35:30;19.70;;;15.45;;
18574;SDS011;9417;16.484;102.872;2023-02-14T06:37:37;18.77;;;15.30;;
18574;SDS011;9417;16.484;102.872;2023-02-14T06:39:45;17.98;;;15.98;;
18574;SDS011;9417;16.484;102.872;2023-02-14T06:41:54;19.50;;;16.08;;
18574;SDS011;9417;16.484;102.872;2023-02-14T06:44:01;15.55;;;13.90;;
18574;SDS011;9417;16.484;102.872;2023-02-14T06:46:08;18.25;;;14.15;;
18574;SDS011;9417;16.484;102.872;2023-02-14T06:48:16;15.98;;;13.23;;
18574;SDS011;9417;16.484;102.872;2023-02-14T06:50:23;15.77;;;12.82;;
18574;SDS011;9417;16.484;102.872;2023-02-14T06:52:31;13.10;;;11.05;;
18574;SDS011;9417;16.484;102.872;2023-02-14T06:54:38;12.95;;;11.68;;
18574;SDS011;9417;16.484;102.872;2023-02-14T06:56:45;14.80;;;10.65;;
18574;SDS011;9417;16.484;102.872;2023-02-14T06:58:54;13.07;;;10.05;;
18574;SDS011;9417;16.484;102.872;2023-02-14T07:03:08;17.95;;;14.27;;
18574;SDS011;9417;16.484;102.872;2023-02-14T07:05:15;19.10;;;13.48;;
18574;SDS011;9417;16.484;102.872;2023-02-14T07:07:23;16.85;;;13.98;;
18574;SDS011;9417;16.484;102.872;2023-02-14T07:09:30;17.10;;;15.00;;
18574;SDS011;9417;16.484;102.872;2023-02-14T07:11:37;16.95;;;13.98;;
18574;SDS011;9417;16.484;102.872;2023-02-14T07:13:45;16.33;;;14.15;;
18574;SDS011;9417;16.484;102.872;2023-02-14T07:15:54;17.50;;;14.57;;
18574;SDS011;9417;16.484;102.872;2023-02-14T07:18:01;17.45;;;13.27;;
18574;SDS011;9417;16.484;102.872;2023-02-14T07:20:11;15.98;;;14.05;;
18574;SDS011;9417;16.484;102.872;2023-02-14T07:22:21;19.15;;;14.52;;
18574;SDS011;9417;16.484;102.872;2023-02-14T07:24:28;20.23;;;14.93;;
18574;SDS011;9417;16.484;102.872;2023-02-14T07:26:35;17.48;;;15.13;;
18574;SDS011;9417;16.484;102.872;2023-02-14T07:28:42;17.20;;;14.23;;
18574;SDS011;9417;16.484;102.872;2023-02-14T07:30:53;18.30;;;14.68;;
18574;SDS011;9417;16.484;102.872;2023-02-14T07:33:04;17.98;;;14.18;;
18574;SDS011;9417;16.484;102.872;2023-02-14T07:35:11;18.95;;;15.15;;
18574;SDS011;9417;16.484;102.872;2023-02-14T07:37:18;20.58;;;15.02;;
18574;SDS011;9417;16.484;102.872;2023-02-14T07:39:26;18.67;;;15.30;;
18574;SDS011;9417;16.484;102.872;2023-02-14T07:41:34;17.25;;;14.50;;
18574;SDS011;9417;16.484;102.872;2023-02-14T07:43:44;16.98;;;13.85;;
18574;SDS011;9417;16.484;102.872;2023-02-14T07:45:53;17.10;;;13.35;;
18574;SDS011;9417;16.484;102.872;2023-02-14T07:48:01;16.67;;;13.10;;
18574;SDS011;9417;16.484;102.872;2023-02-14T07:50:08;15.57;;;12.82;;
18574;SDS011;9417;16.484;102.872;2023-02-14T07:52:16;14.98;;;13.23;;
18574;SDS011;9417;16.484;102.872;2023-02-14T07:54:23;14.32;;;12.82;;
18574;SDS011;9417;16.484;102.872;2023-02-14T07:56:30;19.85;;;14.75;;
18574;SDS011;9417;16.484;102.872;2023-02-14T07:58:38;19.42;;;13.95;;
18574;SDS011;9417;16.484;102.872;2023-02-14T08:00:45;16.55;;;14.48;;
18574;SDS011;9417;16.484;102.872;2023-02-14T08:02:55;21.00;;;15.23;;
18574;SDS011;9417;16.484;102.872;2023-02-14T08:05:02;17.73;;;13.85;;
18574;SDS011;9417;16.484;102.872;2023-02-14T08:07:10;17.23;;;12.70;;
18574;SDS011;9417;16.484;102.872;2023-02-14T08:09:17;13.25;;;11.95;;
18574;SDS011;9417;16.484;102.872;2023-02-14T08:11:28;14.55;;;13.05;;
18574;SDS011;9417;16.484;102.872;2023-02-14T08:13:52;14.48;;;11.90;;
18574;SDS011;9417;16.484;102.872;2023-02-14T08:16:00;16.00;;;13.02;;
18574;SDS011;9417;16.484;102.872;2023-02-14T08:18:12;16.95;;;13.20;;
18574;SDS011;9417;16.484;102.872;2023-02-14T08:20:21;16.15;;;13.38;;
18574;SDS011;9417;16.484;102.872;2023-02-14T08:22:28;15.68;;;12.48;;
18574;SDS011;9417;16.484;102.872;2023-02-14T08:24:35;12.82;;;11.35;;
18574;SDS011;9417;16.484;102.872;2023-02-14T08:26:43;16.58;;;12.48;;
18574;SDS011;9417;16.484;102.872;2023-02-14T08:28:50;15.20;;;12.43;;
18574;SDS011;9417;16.484;102.872;2023-02-14T08:30:57;14.35;;;12.85;;
18574;SDS011;9417;16.484;102.872;2023-02-14T08:33:05;15.95;;;13.20;;
18574;SDS011;9417;16.484;102.872;2023-02-14T08:35:15;15.57;;;13.48;;
18574;SDS011;9417;16.484;102.872;2023-02-14T08:37:22;15.32;;;13.00;;
18574;SDS011;9417;16.484;102.872;2023-02-14T08:39:31;15.65;;;13.88;;
18574;SDS011;9417;16.484;102.872;2023-02-14T08:41:38;16.50;;;13.75;;
18574;SDS011;9417;16.484;102.872;2023-02-14T08:43:45;17.73;;;13.98;;
18574;SDS011;9417;16.484;102.872;2023-02-14T08:45:52;17.50;;;13.40;;
18574;SDS011;9417;16.484;102.872;2023-02-14T08:48:01;15.05;;;12.95;;
18574;SDS011;9417;16.484;102.872;2023-02-14T08:50:11;14.25;;;12.18;;
18574;SDS011;9417;16.484;102.872;2023-02-14T08:52:21;14.95;;;12.63;;
18574;SDS011;9417;16.484;102.872;2023-02-14T08:54:29;15.70;;;12.55;;
18574;SDS011;9417;16.484;102.872;2023-02-14T08:56:36;15.13;;;13.57;;
18574;SDS011;9417;16.484;102.872;2023-02-14T08:58:44;15.18;;;12.55;;
18574;SDS011;9417;16.484;102.872;2023-02-14T09:00:54;17.45;;;12.75;;
18574;SDS011;9417;16.484;102.872;2023-02-14T09:03:03;14.57;;;12.40;;
18574;SDS011;9417;16.484;102.872;2023-02-14T09:05:11;15.00;;;12.77;;
18574;SDS011;9417;16.484;102.872;2023-02-14T09:07:21;16.38;;;12.98;;
18574;SDS011;9417;16.484;102.872;2023-02-14T09:09:28;14.55;;;13.05;;
18574;SDS011;9417;16.484;102.872;2023-02-14T09:11:37;14.20;;;12.73;;
18574;SDS011;9417;16.484;102.872;2023-02-14T09:13:45;15.63;;;13.98;;
18574;SDS011;9417;16.484;102.872;2023-02-14T09:15:53;16.73;;;13.57;;
18574;SDS011;9417;16.484;102.872;2023-02-14T09:18:00;16.08;;;14.10;;
18574;SDS011;9417;16.484;102.872;2023-02-14T09:20:08;15.02;;;13.43;;
18574;SDS011;9417;16.484;102.872;2023-02-14T09:25:19;17.75;;;13.43;;
18574;SDS011;9417;16.484;102.872;2023-02-14T09:27:27;15.18;;;13.27;;
18574;SDS011;9417;16.484;102.872;2023-02-14T09:29:34;16.08;;;13.18;;
18574;SDS011;9417;16.484;102.872;2023-02-14T09:31:42;23.88;;;15.27;;
18574;SDS011;9417;16.484;102.872;2023-02-14T09:33:50;17.08;;;15.18;;
18574;SDS011;9417;16.484;102.872;2023-02-14T09:35:57;17.10;;;14.57;;
18574;SDS011;9417;16.484;102.872;2023-02-14T09:38:22;16.38;;;14.65;;
18574;SDS011;9417;16.484;102.872;2023-02-14T09:40:30;18.00;;;15.18;;
18574;SDS011;9417;16.484;102.872;2023-02-14T09:42:40;18.88;;;16.25;;
18574;SDS011;9417;16.484;102.872;2023-02-14T09:44:56;20.23;;;16.00;;
18574;SDS011;9417;16.484;102.872;2023-02-14T09:47:08;17.90;;;16.00;;
18574;SDS011;9417;16.484;102.872;2023-02-14T09:49:26;22.73;;;16.67;;
18574;SDS011;9417;16.484;102.872;2023-02-14T09:51:37;19.17;;;16.00;;
18574;SDS011;9417;16.484;102.872;2023-02-14T09:53:52;21.75;;;15.88;;
18574;SDS011;9417;16.484;102.872;2023-02-14T09:56:06;18.23;;;15.52;;
18574;SDS011;9417;16.484;102.872;2023-02-14T09:58:19;19.75;;;17.15;;
18574;SDS011;9417;16.484;102.872;2023-02-14T10:00:31;23.08;;;17.00;;
18574;SDS011;9417;16.484;102.872;2023-02-14T10:02:45;18.92;;;17.00;;
18574;SDS011;9417;16.484;102.872;2023-02-14T10:05:04;20.08;;;16.35;;
18574;SDS011;9417;16.484;102.872;2023-02-14T10:07:17;18.58;;;16.58;;
18574;SDS011;9417;16.484;102.872;2023-02-14T10:09:45;21.75;;;16.25;;
18574;SDS011;9417;16.484;102.872;2023-02-14T10:11:59;20.58;;;16.80;;
18574;SDS011;9417;16.484;102.872;2023-02-14T10:14:08;19.73;;;16.35;;
18574;SDS011;9417;16.484;102.872;2023-02-14T10:16:21;20.92;;;16.38;;
18574;SDS011;9417;16.484;102.872;2023-02-14T10:18:32;19.30;;;16.08;;
18574;SDS011;9417;16.484;102.872;2023-02-14T10:20:45;24.15;;;17.30;;
18574;SDS011;9417;16.484;102.872;2023-02-14T10:25:13;24.98;;;16.70;;
18574;SDS011;9417;16.484;102.872;2023-02-14T10:27:28;22.77;;;17.73;;
18574;SDS011;9417;16.484;102.872;2023-02-14T10:29:37;21.00;;;15.98;;
18574;SDS011;9417;16.484;102.872;2023-02-14T10:31:48;20.98;;;16.98;;
18574;SDS011;9417;16.484;102.872;2023-02-14T10:34:03;21.65;;;17.52;;
18574;SDS011;9417;16.484;102.872;2023-02-14T10:36:22;19.98;;;16.02;;
18574;SDS011;9417;16.484;102.872;2023-02-14T10:38:38;22.00;;;16.05;;
18574;SDS011;9417;16.484;102.872;2023-02-14T10:43:29;19.33;;;15.43;;
18574;SDS011;9417;16.484;102.872;2023-02-14T10:45:44;23.88;;;16.45;;
18574;SDS011;9417;16.484;102.872;2023-02-14T10:47:59;20.58;;;16.77;;
18574;SDS011;9417;16.484;102.872;2023-02-14T10:50:20;22.65;;;16.33;;
18574;SDS011;9417;16.484;102.872;2023-02-14T10:52:34;24.73;;;16.58;;
18574;SDS011;9417;16.484;102.872;2023-02-14T10:54:49;24.30;;;16.40;;
18574;SDS011;9417;16.484;102.872;2023-02-14T10:57:02;24.45;;;16.85;;
18574;SDS011;9417;16.484;102.872;2023-02-14T10:59:15;20.23;;;15.90;;
18574;SDS011;9417;16.484;102.872;2023-02-14T11:01:26;22.63;;;17.38;;
18574;SDS011;9417;16.484;102.872;2023-02-14T11:03:34;32.42;;;18.30;;
18574;SDS011;9417;16.484;102.872;2023-02-14T11:07:53;58.75;;;29.42;;
18574;SDS011;9417;16.484;102.872;2023-02-14T11:10:02;55.22;;;29.85;;
18574;SDS011;9417;16.484;102.872;2023-02-14T11:14:50;50.30;;;28.27;;
18574;SDS011;9417;16.484;102.872;2023-02-14T11:17:25;45.55;;;25.30;;
18574;SDS011;9417;16.484;102.872;2023-02-14T11:19:34;39.70;;;23.75;;
18574;SDS011;9417;16.484;102.872;2023-02-14T11:21:42;45.92;;;24.27;;
18574;SDS011;9417;16.484;102.872;2023-02-14T11:23:50;32.10;;;23.20;;
18574;SDS011;9417;16.484;102.872;2023-02-14T11:25:58;43.22;;;23.35;;
18574;SDS011;9417;16.484;102.872;2023-02-14T11:28:09;31.90;;;22.70;;
18574;SDS011;9417;16.484;102.872;2023-02-14T11:30:33;36.65;;;22.60;;
18574;SDS011;9417;16.484;102.872;2023-02-14T11:32:44;33.78;;;22.95;;
18574;SDS011;9417;16.484;102.872;2023-02-14T11:34:59;30.17;;;21.73;;
18574;SDS011;9417;16.484;102.872;2023-02-14T11:37:16;33.50;;;21.92;;
18574;SDS011;9417;16.484;102.872;2023-02-14T11:39:32;39.88;;;23.50;;
18574;SDS011;9417;16.484;102.872;2023-02-14T11:41:47;36.95;;;22.13;;
18574;SDS011;9417;16.484;102.872;2023-02-14T11:44:10;34.05;;;22.08;;
18574;SDS011;9417;16.484;102.872;2023-02-14T11:46:27;31.30;;;23.55;;
18574;SDS011;9417;16.484;102.872;2023-02-14T11:48:53;34.13;;;25.17;;
18574;SDS011;9417;16.484;102.872;2023-02-14T11:51:06;35.45;;;24.58;;
18574;SDS011;9417;16.484;102.872;2023-02-14T11:53:18;32.85;;;24.13;;
18574;SDS011;9417;16.484;102.872;2023-02-14T11:55:28;36.47;;;24.63;;
18574;SDS011;9417;16.484;102.872;2023-02-14T11:57:37;30.98;;;22.27;;
18574;SDS011;9417;16.484;102.872;2023-02-14T11:59:46;33.15;;;22.77;;
18574;SDS011;9417;16.484;102.872;2023-02-14T12:01:59;34.72;;;24.00;;
18574;SDS011;9417;16.484;102.872;2023-02-14T12:04:18;39.90;;;27.52;;
18574;SDS011;9417;16.484;102.872;2023-02-14T12:06:32;37.70;;;26.67;;
18574;SDS011;9417;16.484;102.872;2023-02-14T12:08:41;30.42;;;24.23;;
18574;SDS011;9417;16.484;102.872;2023-02-14T12:10:59;36.35;;;26.35;;
18574;SDS011;9417;16.484;102.872;2023-02-14T12:13:20;35.03;;;25.80;;
18574;SDS011;9417;16.484;102.872;2023-02-14T12:15:34;35.42;;;26.42;;
18574;SDS011;9417;16.484;102.872;2023-02-14T12:17:45;33.40;;;25.55;;
18574;SDS011;9417;16.484;102.872;2023-02-14T12:19:57;31.42;;;22.65;;
18574;SDS011;9417;16.484;102.872;2023-02-14T12:22:14;37.63;;;24.58;;
18574;SDS011;9417;16.484;102.872;2023-02-14T12:24:26;30.48;;;23.38;;
18574;SDS011;9417;16.484;102.872;2023-02-14T12:26:37;34.30;;;24.35;;
18574;SDS011;9417;16.484;102.872;2023-02-14T12:28:53;32.47;;;24.08;;
18574;SDS011;9417;16.484;102.872;2023-02-14T12:31:08;32.05;;;23.80;;
18574;SDS011;9417;16.484;102.872;2023-02-14T12:33:19;30.60;;;25.08;;
18574;SDS011;9417;16.484;102.872;2023-02-14T12:35:33;32.95;;;25.27;;
18574;SDS011;9417;16.484;102.872;2023-02-14T12:37:54;34.42;;;25.17;;
18574;SDS011;9417;16.484;102.872;2023-02-14T12:40:10;33.25;;;25.45;;
18574;SDS011;9417;16.484;102.872;2023-02-14T12:42:27;32.25;;;24.38;;
18574;SDS011;9417;16.484;102.872;2023-02-14T12:44:48;35.45;;;26.00;;
18574;SDS011;9417;16.484;102.872;2023-02-14T12:47:09;36.25;;;25.00;;
18574;SDS011;9417;16.484;102.872;2023-02-14T12:49:28;34.15;;;25.33;;
18574;SDS011;9417;16.484;102.872;2023-02-14T12:51:53;33.88;;;25.92;;
18574;SDS011;9417;16.484;102.872;2023-02-14T12:54:17;30.25;;;25.83;;
18574;SDS011;9417;16.484;102.872;2023-02-14T12:56:53;32.92;;;25.88;;
18574;SDS011;9417;16.484;102.872;2023-02-14T12:59:10;33.67;;;26.88;;
18574;SDS011;9417;16.484;102.872;2023-02-14T13:01:31;33.13;;;26.20;;